EHDL Airport Information

Runway Information
Runway 02 Length 9678 ft width 164 ft
Elevation 144 ft Threshold 895 ft Heading 18
Runway 20 Length 9678 ft Width 164 ft
Elevation 158 ft Threshold 899 ft Heading 198
Airport Frequencies
Type APP Name RAPCON WES Frequency 123.575 MHZ
Type TWR Name TWR Frequency 122.1 MHZ
Airport Navaids
Type TACAN Name Deelen Frequency 112200 KHZ
Airport Weather Information & NOTAM
ADDS - METARS form results

(2012 UTC 26 March 2019)
Data provider http://aviationweather.gov/metar/data/
 
METAR text: EHDL 261955Z AUTO 29005KT 260V010 9999 BKN022 OVC052 07/03 Q1031 WHT
Conditions at: EHDL (DEELEN RNLAFB , NL) observed 1955 UTC 26 March 2019
Temperature: 7.0°C (45°F)
Dewpoint: 3.0°C (37°F) [RH = 76%]
Pressure (altimeter): 30.44 inches Hg (1031.0 mb)
Winds: from the WNW (290 degrees) at 6 MPH (5 knots; 2.6 m/s)
Visibility: 6 or more miles (10+ km)
Ceiling: 2200 feet AGL
Clouds: broken clouds at 2200 feet AGL
overcast cloud deck at 5200 feet AGL
Weather: no significant weather observed at this time

METAR text: EHDL 261925Z AUTO 29004KT 270V330 9999 FEW022 OVC051 07/03 Q1031 BLU
Conditions at: EHDL (DEELEN RNLAFB , NL) observed 1925 UTC 26 March 2019
Temperature: 7.0°C (45°F)
Dewpoint: 3.0°C (37°F) [RH = 76%]
Pressure (altimeter): 30.44 inches Hg (1031.0 mb)
Winds: from the WNW (290 degrees) at 5 MPH (4 knots; 2.1 m/s)
Visibility: 6 or more miles (10+ km)
Ceiling: 5100 feet AGL
Clouds: few clouds at 2200 feet AGL
overcast cloud deck at 5100 feet AGL
Weather: no significant weather observed at this time

Forecast for: EHDL (DEELEN RNLAFB , NL)
Text: TAF EHDL 261313Z 2614/2702 30007KT 9999 SCT030
Forecast period: 1400 to 2200 UTC 26 March 2019
Forecast type: FROM: standard forecast or significant change
Winds: from the WNW (300 degrees) at 8 MPH (7 knots; 3.6 m/s)
Visibility: 6 or more miles 10+ km)
Ceiling: at least 12,000 feet AGL
Clouds: scattered clouds at 3000 feet AGL
Weather: no significant weather forecast for this period
Text: BECMG 2622/2624 VRB03KT 4000 BR
Forecast period: 2200 UTC 26 March 2019 to 0200 UTC 27 March 2019
Forecast type: BECOMING: Conditions expected to become as follows by 0000 UTC 27 March 2019
Winds: variable direction winds at 3 MPH (3 knots; 1.5 m/s)
Visibility: 2.49 miles (4.01 km)
Ceiling: at least 12,000 feet AGL
Clouds: scattered clouds at 3000 feet AGL
Weather: BR  (mist)
Text: PROB40 2700/2702 0800 FG BKN001
Forecast period: 0000 to 0200 UTC 27 March 2019
Forecast type: PROBABLE: 40 percent likelihood of the following during this time
Visibility: 0.50 miles (0.80 km)
Ceiling: 100 feet AGL
Clouds: broken clouds at 100 feet AGL
Weather: FG  (fog)